createdAt,value
2022-10-24T00:02:25.805Z,2.60
2022-10-24T00:07:28.755Z,2.72
2022-10-24T00:12:32.892Z,2.38
2022-10-24T00:17:36.160Z,2.53
2022-10-24T00:22:39.089Z,2.63
2022-10-24T00:27:43.217Z,3.05
2022-10-24T00:32:46.240Z,2.97
2022-10-24T00:37:49.170Z,3.45
2022-10-24T00:42:53.392Z,2.65
2022-10-24T00:47:56.165Z,3.17
2022-10-24T00:52:58.970Z,2.90
2022-10-24T00:58:05.380Z,3.90
2022-10-24T01:03:08.669Z,2.78
2022-10-24T01:08:22.442Z,3.33
2022-10-24T01:13:37.097Z,2.72
2022-10-24T01:18:45.564Z,3.30
2022-10-24T01:24:08.157Z,2.67
2022-10-24T01:29:20.668Z,3.10
2022-10-24T01:34:29.988Z,3.28
2022-10-24T01:39:37.780Z,2.80
2022-10-24T01:44:43.744Z,3.15
2022-10-24T01:49:53.680Z,2.50
2022-10-24T01:54:56.555Z,2.95
2022-10-24T01:59:59.708Z,3.38
2022-10-24T02:05:08.690Z,2.70
2022-10-24T02:10:16.384Z,3.15
2022-10-24T02:15:25.498Z,2.78
2022-10-24T02:20:34.501Z,2.88
2022-10-24T02:25:43.068Z,2.63
2022-10-24T02:30:51.401Z,3.05
2022-10-24T02:35:56.952Z,3.40
2022-10-24T02:41:04.304Z,2.90
2022-10-24T02:46:08.934Z,2.20
2022-10-24T02:51:14.214Z,2.40
2022-10-24T02:56:16.989Z,2.72
2022-10-24T03:01:19.956Z,2.70
2022-10-24T03:06:24.161Z,2.70
2022-10-24T03:11:26.977Z,2.63
2022-10-24T03:16:29.777Z,2.38
2022-10-24T03:21:33.932Z,2.40
2022-10-24T03:26:36.759Z,2.60
2022-10-24T03:31:39.541Z,2.85
2022-10-24T03:36:43.652Z,2.88
2022-10-24T03:41:46.417Z,2.97
2022-10-24T03:46:49.151Z,2.70
2022-10-24T03:51:53.266Z,2.42
2022-10-24T03:56:56.009Z,3.42
2022-10-24T04:01:59.742Z,2.95
2022-10-24T04:07:05.729Z,2.60
2022-10-24T04:12:08.775Z,2.95
2022-10-24T04:17:11.522Z,1.95
2022-10-24T04:22:15.726Z,2.33
2022-10-24T04:27:18.509Z,2.50
2022-10-24T04:32:21.297Z,2.50
2022-10-24T04:37:25.403Z,2.58
2022-10-24T04:42:28.136Z,1.83
2022-10-24T04:47:30.828Z,1.52
2022-10-24T04:52:34.922Z,2.83
2022-10-24T04:57:38.055Z,2.40
2022-10-24T05:02:40.894Z,3.65
2022-10-24T05:07:45.791Z,2.33
2022-10-24T05:12:48.904Z,2.30
2022-10-24T05:17:51.710Z,2.25
2022-10-24T05:22:55.802Z,2.88
2022-10-24T05:27:58.503Z,2.92
2022-10-24T05:33:01.238Z,2.25
2022-10-24T05:38:05.862Z,2.05
2022-10-24T05:43:08.613Z,2.67
2022-10-24T05:48:11.354Z,2.65
2022-10-24T05:53:15.398Z,2.65
2022-10-24T05:58:21.067Z,3.58
2022-10-24T06:03:24.767Z,10.05
2022-10-24T06:08:28.860Z,5.07
2022-10-24T06:13:35.308Z,2.30
2022-10-24T06:18:40.620Z,2.25
2022-10-24T06:23:44.732Z,1.42
2022-10-24T06:28:47.714Z,2.50
2022-10-24T06:33:50.461Z,2.95
2022-10-24T06:38:54.963Z,3.08
2022-10-24T06:43:58.001Z,2.25
2022-10-24T06:49:00.792Z,1.98
2022-10-24T06:54:05.045Z,2.33
2022-10-24T06:59:10.691Z,2.08
2022-10-24T07:04:13.861Z,1.90
2022-10-24T07:09:18.562Z,2.38
2022-10-24T07:14:21.407Z,2.78
2022-10-24T07:19:24.165Z,2.35
2022-10-24T07:24:28.288Z,2.17
2022-10-24T07:29:31.109Z,1.75
2022-10-24T07:34:34.894Z,1.40
2022-10-24T07:39:39.037Z,1.50
2022-10-24T07:44:42.015Z,2.50
2022-10-24T07:49:45.153Z,1.60
2022-10-24T07:54:49.322Z,1.90
2022-10-24T07:59:52.333Z,1.70
2022-10-24T08:04:55.122Z,1.60
2022-10-24T08:09:59.265Z,1.75
2022-10-24T08:15:02.658Z,2.60
2022-10-24T08:20:06.922Z,1.23
2022-10-24T08:25:11.766Z,1.45
2022-10-24T08:30:17.346Z,1.55
2022-10-24T08:35:22.013Z,1.25
2022-10-24T08:40:26.826Z,1.15
2022-10-24T08:45:36.841Z,1.38
2022-10-24T08:50:43.722Z,2.20
2022-10-24T08:55:51.512Z,1.60
2022-10-24T09:00:56.413Z,1.10
2022-10-24T09:06:02.591Z,1.20
2022-10-24T09:11:08.145Z,1.65
2022-10-24T09:16:12.234Z,2.05
2022-10-24T09:21:16.874Z,1.27
2022-10-24T09:26:28.291Z,1.00
2022-10-24T09:31:31.062Z,1.20
2022-10-24T09:36:33.942Z,1.00
2022-10-24T09:41:38.220Z,1.63
2022-10-24T09:46:45.940Z,1.48
2022-10-24T09:51:52.185Z,1.40
2022-10-24T09:56:59.120Z,1.38
2022-10-24T10:02:24.640Z,1.15
2022-10-24T10:07:29.808Z,1.33
2022-10-24T10:12:36.904Z,1.27
2022-10-24T10:17:51.335Z,0.98
2022-10-24T10:22:54.221Z,1.10
2022-10-24T10:28:00.997Z,1.10
2022-10-24T10:33:18.522Z,1.15
2022-10-24T10:38:44.749Z,1.33
2022-10-24T10:43:57.828Z,1.20
2022-10-24T10:49:13.232Z,1.02
2022-10-24T10:54:58.199Z,1.52
2022-10-24T11:00:09.961Z,1.48
2022-10-24T11:05:27.159Z,1.23
2022-10-24T11:10:36.836Z,1.15
2022-10-24T11:15:44.926Z,1.58
2022-10-24T11:20:53.182Z,1.10
2022-10-24T11:26:03.044Z,1.20
2022-10-24T11:31:12.449Z,1.00
2022-10-24T11:36:21.443Z,0.90
2022-10-24T11:41:36.807Z,1.08
2022-10-24T11:46:45.560Z,1.10
2022-10-24T11:51:52.560Z,1.20
2022-10-24T11:57:00.458Z,1.10
2022-10-24T12:02:36.805Z,1.00
2022-10-24T12:08:09.272Z,0.88
2022-10-24T12:13:29.732Z,1.38
2022-10-24T12:18:37.161Z,1.08
2022-10-24T12:23:41.990Z,1.02
2022-10-24T12:28:54.241Z,1.15
2022-10-24T12:34:46.096Z,1.30
2022-10-24T12:39:56.186Z,1.02
2022-10-24T12:45:28.689Z,1.20
2022-10-24T12:50:59.621Z,1.95
2022-10-24T13:01:29.638Z,1.23
2022-10-24T13:06:48.092Z,1.13
2022-10-24T13:12:05.393Z,1.52
2022-10-24T13:17:14.706Z,1.23
2022-10-24T13:22:30.632Z,1.15
2022-10-24T13:27:33.460Z,1.55
2022-10-24T13:32:36.133Z,1.10
2022-10-24T13:37:44.500Z,1.42
2022-10-24T13:42:52.963Z,0.63
2022-10-24T13:48:01.833Z,0.93
2022-10-24T13:53:15.434Z,1.45
2022-10-24T13:58:20.656Z,0.95
2022-10-24T14:03:26.477Z,1.30
2022-10-24T14:08:33.408Z,0.93
2022-10-24T14:13:43.660Z,1.70
2022-10-24T14:18:46.654Z,0.95
2022-10-24T14:23:59.336Z,1.90
2022-10-24T14:29:02.388Z,1.45
2022-10-24T14:34:09.584Z,0.93
2022-10-24T14:39:23.663Z,1.65
2022-10-24T14:44:27.149Z,1.20
2022-10-24T14:49:33.986Z,1.27
2022-10-24T14:54:39.180Z,1.02
2022-10-24T14:59:46.515Z,0.98
2022-10-24T15:04:51.841Z,1.60
2022-10-24T15:09:58.663Z,1.48
2022-10-24T15:15:22.713Z,1.65
2022-10-24T15:20:29.434Z,1.25
2022-10-24T15:25:38.038Z,1.02
2022-10-24T15:30:43.391Z,1.65
2022-10-24T15:35:46.215Z,1.88
2022-10-24T15:40:50.424Z,1.23
2022-10-24T15:45:53.357Z,1.10
2022-10-24T15:50:56.170Z,1.13
2022-10-24T15:56:00.360Z,1.65
2022-10-24T16:01:03.352Z,1.55
2022-10-24T16:06:06.476Z,0.93
2022-10-24T16:11:13.165Z,1.40
2022-10-24T16:16:15.993Z,1.10
2022-10-24T16:21:20.579Z,1.50
2022-10-24T16:26:24.876Z,1.23
2022-10-24T16:31:27.665Z,1.38
2022-10-24T16:36:30.870Z,2.38
2022-10-24T16:41:35.053Z,1.63
2022-10-24T16:46:37.795Z,1.40
2022-10-24T16:51:43.221Z,1.58
2022-10-24T16:56:52.514Z,1.30
2022-10-24T17:01:56.761Z,1.15
2022-10-24T17:06:59.563Z,1.63
2022-10-24T17:12:04.008Z,1.83
2022-10-24T17:17:07.162Z,1.50
2022-10-24T17:22:12.333Z,2.00
2022-10-24T17:27:17.249Z,1.27
2022-10-24T17:32:20.234Z,2.58
2022-10-24T17:37:30.780Z,1.83
2022-10-24T17:42:35.474Z,1.02
2022-10-24T17:47:38.374Z,1.27
2022-10-24T17:52:42.329Z,1.42
2022-10-24T17:57:46.962Z,1.30
2022-10-24T18:02:51.229Z,1.48
2022-10-24T18:07:54.031Z,2.20
2022-10-24T18:18:02.017Z,1.48
2022-10-24T18:23:05.278Z,1.60
2022-10-24T18:28:09.531Z,1.70
2022-10-24T18:33:12.304Z,1.70
2022-10-24T18:38:18.669Z,1.48
2022-10-24T18:43:23.061Z,1.50
2022-10-24T18:48:26.515Z,1.92
2022-10-24T18:53:33.145Z,1.67
2022-10-24T18:58:37.564Z,2.33
2022-10-24T19:03:41.257Z,1.60
2022-10-24T19:08:44.405Z,1.70
2022-10-24T19:13:48.860Z,2.03
2022-10-24T19:18:56.709Z,1.65
2022-10-24T19:23:59.882Z,1.92
2022-10-24T19:29:05.812Z,1.65
2022-10-24T19:34:10.579Z,2.10
2022-10-24T19:39:13.464Z,2.22
2022-10-24T19:44:17.674Z,2.45
2022-10-24T19:49:20.631Z,2.70
2022-10-24T19:54:23.410Z,2.20
2022-10-24T19:59:31.719Z,2.10
2022-10-24T20:04:38.893Z,2.47
2022-10-24T20:09:41.644Z,1.58
2022-10-24T20:14:45.838Z,2.28
2022-10-24T20:19:48.674Z,1.83
2022-10-24T20:24:51.442Z,1.80
2022-10-24T20:29:56.117Z,2.10
2022-10-24T20:34:58.896Z,1.73
2022-10-24T20:40:01.957Z,1.55
2022-10-24T20:45:07.304Z,2.10
2022-10-24T20:50:10.673Z,2.53
2022-10-24T20:55:25.060Z,2.38
2022-10-24T21:05:40.251Z,1.40
2022-10-24T21:10:42.999Z,1.48
2022-10-24T21:15:47.115Z,1.27
2022-10-24T21:20:49.897Z,1.00
2022-10-24T21:26:02.586Z,1.33
2022-10-24T21:36:13.312Z,2.22
2022-10-24T21:41:16.804Z,1.33
2022-10-24T21:46:22.704Z,0.98
2022-10-24T21:51:26.992Z,1.02
2022-10-24T21:56:31.634Z,1.63
2022-10-24T22:01:38.047Z,1.38
2022-10-24T22:06:42.099Z,0.90
2022-10-24T22:11:45.801Z,1.77
2022-10-24T22:16:49.918Z,2.35
2022-10-24T22:21:53.079Z,1.23
2022-10-24T22:26:55.977Z,1.20
2022-10-24T22:32:00.884Z,1.50
2022-10-24T22:37:16.409Z,0.75
2022-10-24T22:42:20.401Z,1.23
2022-10-24T22:47:59.337Z,1.10
2022-10-24T22:53:02.618Z,1.20
2022-10-24T22:58:05.970Z,1.30
2022-10-24T23:03:20.495Z,1.20
2022-10-24T23:08:31.759Z,1.38
2022-10-24T23:13:35.160Z,1.40
2022-10-24T23:18:40.364Z,1.33
2022-10-24T23:23:43.648Z,2.65
2022-10-24T23:28:51.506Z,1.55
2022-10-24T23:33:56.273Z,1.48
2022-10-24T23:38:59.585Z,2.63
2022-10-24T23:44:02.797Z,1.52
2022-10-24T23:49:18.651Z,1.98
2022-10-24T23:54:26.217Z,2.60
2022-10-24T23:59:29.553Z,2.30
